< < Back
Terminal Aerodrome Forecast


Current Version              Previous Versions:   1  2  3  4  5  6  7  8  9  

Terminal Aerodrome Forecast

130
FTUS44 KBMX 312300 RRA
TAFANB
TAF
KANB 312341Z 0100/0124 00000KT P6SM BKN150
     FM010800 00000KT 4SM BR SCT025 SCT150
     FM011500 20007KT P6SM SCT025 BKN150=



Latest METAR

825
SAUS70 KWBC 010800 RRW
MTRANB
METAR KANB 010753Z AUTO 00000KT 10SM CLR 22/21 A3009 RMK AO2 SLP178
T02220211


USA.gov is the U.S. government's official web portal to all federal, state and local government web resources and services.